Time;durP1;ratioP1;P1;durP2;ratioP2;P2;SDS_P1;SDS_P2;PMS_P1;PMS_P2;Temp;Humidity;BMP_temperature;BMP_pressure;BME280_temperature;BME280_humidity;BME280_pressure;Samples;Min_cycle;Max_cycle;Signal;HPM_P1;HPM_P2
2022/09/18 00:01:35;;;;;;;;;;;9.00;99.90;;;;;;5076099;28;19940;-64
2022/09/18 00:04:02;;;;;;;;;;;9.10;99.90;;;;;;5079577;28;20214;-64
2022/09/18 00:06:29;;;;;;;;;;;9.20;99.90;;;;;;5077821;28;20337;-64
2022/09/18 00:08:56;;;;;;;;;;;9.10;99.90;;;;;;5077888;28;19912;-63
2022/09/18 00:11:24;;;;;;;;;;;9.20;99.90;;;;;;5072782;28;19946;-63
2022/09/18 00:13:50;;;;;;;;;;;9.10;99.90;;;;;;5068959;28;20287;-63
2022/09/18 00:16:16;;;;;;;;;;;9.10;99.90;;;;;;5077610;28;19912;-63
2022/09/18 00:18:42;;;;;;;;;;;9.00;99.90;;;;;;5072182;28;19908;-63
2022/09/18 00:21:13;;;;;;;;;;;9.00;99.90;;;;;;5073518;28;19958;-63
2022/09/18 00:23:39;;;;;;;;;;;9.00;99.90;;;;;;5070968;28;20348;-64
2022/09/18 00:26:05;;;;;;;;;;;9.10;99.90;;;;;;5079190;28;20666;-64
2022/09/18 00:28:31;;;;;;;;;;;9.00;99.90;;;;;;5070608;28;19913;-64
2022/09/18 00:31:07;;;;;;;;;;;8.90;99.90;;;;;;5074179;28;19909;-64
2022/09/18 00:33:33;;;;;;;;;;;8.90;99.90;;;;;;5055085;28;19942;-64
2022/09/18 00:36:00;;;;;;;;;;;8.80;99.90;;;;;;5078938;28;19979;-64
2022/09/18 00:38:27;;;;;;;;;;;8.80;99.90;;;;;;5054678;28;19920;-64
2022/09/18 00:40:52;;;;;;;;;;;8.70;99.90;;;;;;5072971;28;19913;-63
2022/09/18 00:43:20;;;;;;;;;;;8.70;99.90;;;;;;5071833;28;19966;-64
2022/09/18 00:45:49;;;;;;;;;;;8.60;99.90;;;;;;5072101;28;20186;-62
2022/09/18 00:48:14;;;;;;;;;;;8.60;99.90;;;;;;5073543;28;19912;-63
2022/09/18 00:50:40;;;;;;;;;;;8.50;99.90;;;;;;5074064;28;19921;-63
2022/09/18 00:53:05;;;;;;;;;;;8.50;99.90;;;;;;5075654;28;19962;-63
2022/09/18 00:55:32;;;;;;;;;;;8.50;99.90;;;;;;5071634;28;19917;-63
2022/09/18 00:57:59;;;;;;;;;;;8.50;99.90;;;;;;5076648;28;19920;-63
2022/09/18 01:00:25;;;;;;;;;;;8.50;99.90;;;;;;5078502;28;19916;-63
2022/09/18 01:02:51;;;;;;;;;;;8.50;99.90;;;;;;5077471;28;19912;-63
2022/09/18 01:05:36;;;;;;;;;;;8.50;99.90;;;;;;5079850;28;19920;-63
2022/09/18 01:08:07;;;;;;;;;;;8.30;99.90;;;;;;5076744;28;19952;-63
2022/09/18 01:10:36;;;;;;;;;;;8.30;99.90;;;;;;5077588;28;20007;-64
2022/09/18 01:13:10;;;;;;;;;;;8.20;99.90;;;;;;5075336;28;19936;-62
2022/09/18 01:15:36;;;;;;;;;;;8.10;99.90;;;;;;5073924;28;19931;-62
2022/09/18 01:18:14;;;;;;;;;;;8.20;99.90;;;;;;5073879;28;19919;-63
2022/09/18 01:20:42;;;;;;;;;;;8.20;99.90;;;;;;5078039;28;19939;-62
2022/09/18 01:23:26;;;;;;;;;;;8.20;99.90;;;;;;5077476;28;19928;-63
2022/09/18 01:26:11;;;;;;;;;;;8.30;99.90;;;;;;5075348;28;19923;-63
2022/09/18 01:28:48;;;;;;;;;;;8.30;99.90;;;;;;5073236;28;19913;-63
2022/09/18 01:31:19;;;;;;;;;;;8.30;99.90;;;;;;5060339;28;19912;-63
2022/09/18 01:33:44;;;;;;;;;;;8.20;99.90;;;;;;5068688;28;19943;-63
2022/09/18 01:36:13;;;;;;;;;;;8.10;99.90;;;;;;5071541;28;19924;-63
2022/09/18 01:38:45;;;;;;;;;;;8.10;99.90;;;;;;5048963;28;19917;-63
2022/09/18 01:41:13;;;;;;;;;;;8.00;99.90;;;;;;5075802;28;19928;-63
2022/09/18 01:43:39;;;;;;;;;;;8.00;99.90;;;;;;5078330;28;20367;-63
2022/09/18 01:46:10;;;;;;;;;;;8.00;99.90;;;;;;5078745;28;19912;-62
2022/09/18 01:48:38;;;;;;;;;;;8.00;99.90;;;;;;5073775;28;19991;-63
2022/09/18 01:51:13;;;;;;;;;;;8.00;99.90;;;;;;5077650;28;20310;-64
2022/09/18 01:53:40;;;;;;;;;;;7.90;99.90;;;;;;5075387;28;19928;-62
2022/09/18 01:56:17;;;;;;;;;;;7.90;99.90;;;;;;5077054;28;19940;-63
2022/09/18 01:58:43;;;;;;;;;;;7.90;99.90;;;;;;5076676;28;19912;-63
2022/09/18 02:01:13;;;;;;;;;;;7.90;99.90;;;;;;5058834;28;19916;-62
2022/09/18 02:03:45;;;;;;;;;;;8.00;99.90;;;;;;5078695;28;19919;-63
2022/09/18 02:06:25;;;;;;;;;;;8.10;99.90;;;;;;5071844;28;19920;-62
2022/09/18 02:08:53;;;;;;;;;;;8.20;99.90;;;;;;5078414;28;19912;-64
2022/09/18 02:11:19;;;;;;;;;;;8.40;99.90;;;;;;5077748;28;20422;-64
2022/09/18 02:13:47;;;;;;;;;;;8.50;99.90;;;;;;5058817;28;19962;-64
2022/09/18 02:16:16;;;;;;;;;;;8.80;99.90;;;;;;5076614;28;19924;-63
2022/09/18 02:18:45;;;;;;;;;;;8.70;99.90;;;;;;5076883;28;19963;-64
2022/09/18 02:21:17;;;;;;;;;;;8.50;99.90;;;;;;5075913;28;19930;-64
2022/09/18 02:23:43;;;;;;;;;;;8.30;99.90;;;;;;5073153;28;19920;-61
2022/09/18 02:26:11;;;;;;;;;;;8.40;99.90;;;;;;5070252;28;19913;-63
2022/09/18 02:28:37;;;;;;;;;;;8.50;99.90;;;;;;5077813;28;20125;-63
2022/09/18 02:31:03;;;;;;;;;;;8.50;99.90;;;;;;5082243;28;19923;-63
2022/09/18 02:33:33;;;;;;;;;;;8.50;99.90;;;;;;5075705;28;19924;-63
2022/09/18 02:36:08;;;;;;;;;;;8.50;99.90;;;;;;5080440;28;19920;-64
2022/09/18 02:38:42;;;;;;;;;;;8.40;99.90;;;;;;5078318;28;19916;-64
2022/09/18 02:41:16;;;;;;;;;;;8.50;99.90;;;;;;5050967;28;19912;-63
2022/09/18 02:43:42;;;;;;;;;;;8.60;99.90;;;;;;5076145;28;19923;-63
2022/09/18 02:46:22;;;;;;;;;;;8.40;99.90;;;;;;5083467;28;19916;-63
2022/09/18 02:49:06;;;;;;;;;;;8.30;99.90;;;;;;5083732;28;19912;-63
2022/09/18 02:51:44;;;;;;;;;;;8.10;99.90;;;;;;5080580;28;19957;-64
2022/09/18 02:54:18;;;;;;;;;;;8.10;99.90;;;;;;5081176;28;19913;-64
2022/09/18 02:56:47;;;;;;;;;;;8.00;99.90;;;;;;5076104;28;19916;-63
2022/09/18 02:59:29;;;;;;;;;;;8.00;99.90;;;;;;5058485;28;19982;-63
2022/09/18 03:01:56;;;;;;;;;;;7.90;99.90;;;;;;5077890;28;19920;-63
2022/09/18 03:04:23;;;;;;;;;;;7.80;99.90;;;;;;5059797;28;20336;-63
2022/09/18 03:06:49;;;;;;;;;;;7.90;99.90;;;;;;5078052;28;19970;-63
2022/09/18 03:09:15;;;;;;;;;;;7.90;99.90;;;;;;5078513;28;19912;-62
2022/09/18 03:11:41;;;;;;;;;;;7.80;99.90;;;;;;5077944;28;19975;-64
2022/09/18 03:14:07;;;;;;;;;;;8.00;99.90;;;;;;5076853;28;20054;-64
2022/09/18 03:16:32;;;;;;;;;;;8.20;99.90;;;;;;5061073;28;19965;-63
2022/09/18 03:18:58;;;;;;;;;;;8.20;99.90;;;;;;5078676;28;20013;-63
2022/09/18 03:21:24;;;;;;;;;;;8.40;99.90;;;;;;5073676;28;19912;-65
2022/09/18 03:23:50;;;;;;;;;;;8.50;99.90;;;;;;5080121;28;19913;-63
2022/09/18 03:26:16;;;;;;;;;;;8.50;99.90;;;;;;5063579;28;19967;-63
2022/09/18 03:28:43;;;;;;;;;;;8.40;99.90;;;;;;5079873;28;19974;-64
2022/09/18 03:31:09;;;;;;;;;;;8.20;99.90;;;;;;5080412;28;19912;-64
2022/09/18 03:33:34;;;;;;;;;;;8.40;99.90;;;;;;5060116;28;19916;-64
2022/09/18 03:36:00;;;;;;;;;;;8.30;99.90;;;;;;5078880;28;20260;-64
2022/09/18 03:38:25;;;;;;;;;;;8.20;99.90;;;;;;5077401;28;19919;-64
2022/09/18 03:40:51;;;;;;;;;;;8.30;99.90;;;;;;5052626;28;19913;-62
2022/09/18 03:43:16;;;;;;;;;;;8.40;99.90;;;;;;5080968;28;19982;-63
2022/09/18 03:45:42;;;;;;;;;;;8.50;99.90;;;;;;5057996;28;19938;-62
2022/09/18 03:48:07;;;;;;;;;;;8.60;99.90;;;;;;5074125;28;19917;-64
2022/09/18 03:50:33;;;;;;;;;;;8.60;99.90;;;;;;5075836;28;19912;-64
2022/09/18 03:52:59;;;;;;;;;;;8.70;99.90;;;;;;5074409;28;19920;-63
2022/09/18 03:55:26;;;;;;;;;;;8.70;99.90;;;;;;5076926;28;20608;-63
2022/09/18 03:57:52;;;;;;;;;;;8.70;99.90;;;;;;5076260;28;19952;-64
2022/09/18 04:00:17;;;;;;;;;;;8.80;99.90;;;;;;5079854;28;19935;-63
2022/09/18 04:02:43;;;;;;;;;;;8.80;99.90;;;;;;5078710;28;19969;-63
2022/09/18 04:05:09;;;;;;;;;;;8.90;99.90;;;;;;5077228;28;19913;-63
2022/09/18 04:07:35;;;;;;;;;;;8.80;99.90;;;;;;5078268;28;19951;-63
2022/09/18 04:10:01;;;;;;;;;;;8.80;99.90;;;;;;5075252;28;19912;-63
2022/09/18 04:12:26;;;;;;;;;;;8.80;99.90;;;;;;5075041;28;20338;-63
2022/09/18 04:14:52;;;;;;;;;;;8.70;99.90;;;;;;5078844;28;19926;-63
2022/09/18 04:17:17;;;;;;;;;;;8.70;99.90;;;;;;5074553;28;19923;-63
2022/09/18 04:19:43;;;;;;;;;;;8.80;99.90;;;;;;5076094;28;19916;-63
2022/09/18 04:22:08;;;;;;;;;;;8.70;99.90;;;;;;5071548;28;19988;-63
2022/09/18 04:24:35;;;;;;;;;;;8.70;99.90;;;;;;5077481;28;19913;-63
2022/09/18 04:27:01;;;;;;;;;;;8.70;99.90;;;;;;5056406;28;19920;-63
2022/09/18 04:29:27;;;;;;;;;;;8.70;99.90;;;;;;5076983;28;19913;-63
2022/09/18 04:31:52;;;;;;;;;;;8.70;99.90;;;;;;5061805;28;19928;-64
2022/09/18 04:34:18;;;;;;;;;;;8.70;99.90;;;;;;5050465;28;19994;-64
2022/09/18 04:36:43;;;;;;;;;;;8.70;99.90;;;;;;5077402;28;19919;-63
2022/09/18 04:39:09;;;;;;;;;;;8.70;99.90;;;;;;5072787;28;19926;-63
2022/09/18 04:41:35;;;;;;;;;;;8.80;99.90;;;;;;5073870;28;19913;-64
2022/09/18 04:44:01;;;;;;;;;;;8.70;99.90;;;;;;5061642;28;19935;-63
2022/09/18 04:46:26;;;;;;;;;;;8.70;99.90;;;;;;5056046;28;19912;-63
2022/09/18 04:48:53;;;;;;;;;;;8.80;99.90;;;;;;5081267;28;19969;-63
2022/09/18 04:51:19;;;;;;;;;;;8.70;99.90;;;;;;5077244;28;20367;-63
2022/09/18 04:53:44;;;;;;;;;;;8.70;99.90;;;;;;5076727;28;19955;-63
2022/09/18 04:56:10;;;;;;;;;;;8.60;99.90;;;;;;5079285;28;19912;-63
2022/09/18 04:58:35;;;;;;;;;;;8.60;99.90;;;;;;5078597;28;20006;-62
2022/09/18 05:01:01;;;;;;;;;;;8.60;99.90;;;;;;5077123;28;19942;-63
2022/09/18 05:03:27;;;;;;;;;;;8.70;99.90;;;;;;5074392;28;19999;-63
2022/09/18 05:05:53;;;;;;;;;;;8.70;99.90;;;;;;5073440;28;19959;-63
2022/09/18 05:08:19;;;;;;;;;;;8.60;99.90;;;;;;5078359;28;19913;-63
2022/09/18 05:10:45;;;;;;;;;;;8.50;99.90;;;;;;5074711;28;19913;-64
2022/09/18 05:13:10;;;;;;;;;;;8.50;99.90;;;;;;5078197;28;19921;-64
2022/09/18 05:15:36;;;;;;;;;;;8.50;99.90;;;;;;5076069;28;19927;-63
2022/09/18 05:18:03;;;;;;;;;;;8.50;99.90;;;;;;5060402;28;19995;-62
2022/09/18 05:20:29;;;;;;;;;;;8.50;99.90;;;;;;5075761;28;19948;-62
2022/09/18 05:22:55;;;;;;;;;;;8.50;99.90;;;;;;5076337;28;19913;-63
2022/09/18 05:25:22;;;;;;;;;;;8.50;99.90;;;;;;5076384;28;20091;-63
2022/09/18 05:27:58;;;;;;;;;;;8.50;99.90;;;;;;5077520;28;19924;-64
2022/09/18 05:30:24;;;;;;;;;;;8.50;99.90;;;;;;5071375;28;20329;-63
2022/09/18 05:32:56;;;;;;;;;;;8.50;99.90;;;;;;5078122;28;19920;-63
2022/09/18 05:35:23;;;;;;;;;;;8.50;99.90;;;;;;5075883;28;20388;-62
2022/09/18 05:37:50;;;;;;;;;;;8.50;99.90;;;;;;5076238;28;19913;-63
2022/09/18 05:40:15;;;;;;;;;;;8.50;99.90;;;;;;5076853;28;19932;-63
2022/09/18 05:42:48;;;;;;;;;;;8.50;99.90;;;;;;5058561;28;19913;-64
2022/09/18 05:45:13;;;;;;;;;;;8.40;99.90;;;;;;5078193;28;19920;-64
2022/09/18 05:47:39;;;;;;;;;;;8.40;99.90;;;;;;5059046;28;19967;-63
2022/09/18 05:50:05;;;;;;;;;;;8.40;99.90;;;;;;5077159;28;19923;-63
2022/09/18 05:52:31;;;;;;;;;;;8.40;99.90;;;;;;5078724;28;19920;-64
2022/09/18 05:54:57;;;;;;;;;;;8.40;99.90;;;;;;5076379;28;20611;-63
2022/09/18 05:57:23;;;;;;;;;;;8.20;99.90;;;;;;5077484;28;20324;-63
2022/09/18 05:59:48;;;;;;;;;;;8.10;99.90;;;;;;5078234;28;20535;-63
2022/09/18 06:02:14;;;;;;;;;;;8.10;99.90;;;;;;5079219;28;19920;-63
2022/09/18 06:04:40;;;;;;;;;;;8.10;99.90;;;;;;5084709;28;19913;-63
2022/09/18 06:07:05;;;;;;;;;;;8.20;99.90;;;;;;5082516;28;20370;-63
2022/09/18 06:09:31;;;;;;;;;;;8.30;99.90;;;;;;5077492;28;19939;-63
2022/09/18 06:11:56;;;;;;;;;;;8.30;99.90;;;;;;5077905;28;19929;-64
2022/09/18 06:14:22;;;;;;;;;;;8.40;99.90;;;;;;5078977;28;19970;-64
2022/09/18 06:16:48;;;;;;;;;;;8.30;99.90;;;;;;5079322;28;19916;-63
2022/09/18 06:19:13;;;;;;;;;;;8.40;99.90;;;;;;5082864;28;20377;-63
2022/09/18 06:21:39;;;;;;;;;;;8.30;99.90;;;;;;5077518;28;20058;-63
2022/09/18 06:24:05;;;;;;;;;;;8.40;99.90;;;;;;5081939;28;19913;-63
2022/09/18 06:26:30;;;;;;;;;;;8.40;99.90;;;;;;5078444;28;20134;-64
2022/09/18 06:28:56;;;;;;;;;;;8.40;99.90;;;;;;5080352;28;19918;-64
2022/09/18 06:31:21;;;;;;;;;;;8.40;99.90;;;;;;5081609;28;19927;-63
2022/09/18 06:33:47;;;;;;;;;;;8.40;99.90;;;;;;5078684;28;19921;-62
2022/09/18 06:36:13;;;;;;;;;;;8.50;99.90;;;;;;5077146;28;19913;-64
2022/09/18 06:38:39;;;;;;;;;;;8.50;99.90;;;;;;5078246;28;19973;-64
2022/09/18 06:41:04;;;;;;;;;;;8.60;99.90;;;;;;5079630;28;19971;-63
2022/09/18 06:43:30;;;;;;;;;;;8.60;99.90;;;;;;5072355;28;20353;-63
2022/09/18 06:45:56;;;;;;;;;;;8.60;99.90;;;;;;5079295;28;19913;-64
2022/09/18 06:48:22;;;;;;;;;;;8.60;99.90;;;;;;5074971;28;19919;-64
2022/09/18 06:50:55;;;;;;;;;;;8.60;99.90;;;;;;5077194;28;19924;-63
2022/09/18 06:53:20;;;;;;;;;;;8.70;99.90;;;;;;5080390;28;19920;-65
2022/09/18 06:55:47;;;;;;;;;;;8.60;99.90;;;;;;5080805;28;20001;-64
2022/09/18 06:58:13;;;;;;;;;;;8.70;99.90;;;;;;5078824;28;20021;-63
2022/09/18 07:00:39;;;;;;;;;;;8.70;99.90;;;;;;5076752;28;19940;-63
2022/09/18 07:03:04;;;;;;;;;;;8.80;99.90;;;;;;5078167;28;19916;-64
2022/09/18 07:05:31;;;;;;;;;;;8.90;99.90;;;;;;5061706;28;19913;-63
2022/09/18 07:07:57;;;;;;;;;;;9.10;99.90;;;;;;5079085;28;19919;-63
2022/09/18 07:10:22;;;;;;;;;;;9.20;99.90;;;;;;5079646;28;20367;-63
2022/09/18 07:12:48;;;;;;;;;;;9.30;99.90;;;;;;5062185;28;20012;-63
2022/09/18 07:15:15;;;;;;;;;;;9.40;99.90;;;;;;5079893;28;20049;-63
2022/09/18 07:17:41;;;;;;;;;;;9.30;99.90;;;;;;5075362;28;19917;-64
2022/09/18 07:20:06;;;;;;;;;;;9.20;99.90;;;;;;5080279;28;19919;-64
2022/09/18 07:22:32;;;;;;;;;;;9.30;99.90;;;;;;5081773;28;19919;-63
2022/09/18 07:24:57;;;;;;;;;;;9.50;99.90;;;;;;5082100;28;19991;-63
2022/09/18 07:27:23;;;;;;;;;;;9.80;99.90;;;;;;5079350;28;20448;-64
2022/09/18 07:29:48;;;;;;;;;;;10.00;99.90;;;;;;5082242;28;20005;-64
2022/09/18 07:32:14;;;;;;;;;;;10.30;99.90;;;;;;5082369;28;19966;-63
2022/09/18 07:34:40;;;;;;;;;;;10.40;99.90;;;;;;5079076;28;19984;-63
2022/09/18 07:37:05;;;;;;;;;;;10.60;99.90;;;;;;5079858;28;19912;-63
2022/09/18 07:39:31;;;;;;;;;;;10.70;99.90;;;;;;5080171;28;19920;-63
2022/09/18 07:41:56;;;;;;;;;;;10.80;99.90;;;;;;5074446;28;19916;-63
2022/09/18 07:44:22;;;;;;;;;;;10.90;99.90;;;;;;5082285;28;19962;-64
2022/09/18 07:46:47;;;;;;;;;;;11.00;99.90;;;;;;5080075;28;19920;-63
2022/09/18 07:49:13;;;;;;;;;;;11.00;99.90;;;;;;5062663;28;20513;-64
2022/09/18 07:51:38;;;;;;;;;;;11.00;99.90;;;;;;5056864;28;19951;-64
2022/09/18 07:54:04;;;;;;;;;;;11.00;99.90;;;;;;5080322;28;19913;-63
2022/09/18 07:56:29;;;;;;;;;;;11.00;99.90;;;;;;5078367;28;19923;-64
2022/09/18 07:58:55;;;;;;;;;;;11.20;99.90;;;;;;5078499;28;19924;-63
2022/09/18 08:01:20;;;;;;;;;;;11.30;99.90;;;;;;5081981;28;19946;-64
2022/09/18 08:03:46;;;;;;;;;;;11.30;99.90;;;;;;5080401;28;20340;-63
2022/09/18 08:06:11;;;;;;;;;;;11.50;99.90;;;;;;5076001;28;19917;-64
2022/09/18 08:08:37;;;;;;;;;;;11.60;99.90;;;;;;5062283;28;19913;-64
2022/09/18 08:11:02;;;;;;;;;;;11.70;99.90;;;;;;5080485;28;19924;-63
2022/09/18 08:13:28;;;;;;;;;;;11.70;99.90;;;;;;5062797;28;19927;-64
2022/09/18 08:15:53;;;;;;;;;;;11.80;99.90;;;;;;5076054;28;19916;-63
2022/09/18 08:18:19;;;;;;;;;;;11.90;99.90;;;;;;5080709;28;19917;-63
2022/09/18 08:20:45;;;;;;;;;;;11.90;99.90;;;;;;5077189;28;19913;-64
2022/09/18 08:23:11;;;;;;;;;;;11.90;99.90;;;;;;5080110;28;19920;-63
2022/09/18 08:25:37;;;;;;;;;;;11.90;99.90;;;;;;5078602;28;19912;-63
2022/09/18 08:28:03;;;;;;;;;;;12.10;99.90;;;;;;5071435;28;19966;-65
2022/09/18 08:30:29;;;;;;;;;;;12.30;99.90;;;;;;5071068;28;19912;-64
2022/09/18 08:32:59;;;;;;;;;;;12.40;99.90;;;;;;5076317;28;20371;-66
2022/09/18 08:35:24;;;;;;;;;;;12.50;99.90;;;;;;5069425;28;19913;-66
2022/09/18 08:37:50;;;;;;;;;;;12.70;99.90;;;;;;5073910;28;19919;-64
2022/09/18 08:40:16;;;;;;;;;;;12.80;99.90;;;;;;5075916;28;19943;-64
2022/09/18 08:43:00;;;;;;;;;;;13.00;99.90;;;;;;5078157;28;20015;-65
2022/09/18 08:45:26;;;;;;;;;;;13.00;99.90;;;;;;5072414;28;19920;-65
2022/09/18 08:47:55;;;;;;;;;;;13.00;99.90;;;;;;5076837;28;19934;-65
2022/09/18 08:50:23;;;;;;;;;;;13.10;99.90;;;;;;5074475;28;19912;-65
2022/09/18 08:52:52;;;;;;;;;;;13.30;99.90;;;;;;5066851;28;19963;-65
2022/09/18 08:55:17;;;;;;;;;;;13.50;99.90;;;;;;5065299;28;20292;-64
2022/09/18 08:57:48;;;;;;;;;;;13.60;99.90;;;;;;5071483;28;19913;-65
2022/09/18 09:00:25;;;;;;;;;;;13.80;99.90;;;;;;5076048;28;19916;-64
2022/09/18 09:02:53;;;;;;;;;;;13.90;99.90;;;;;;5073940;28;19920;-65
2022/09/18 09:05:25;;;;;;;;;;;13.90;99.90;;;;;;5077965;28;19919;-64
2022/09/18 09:07:50;;;;;;;;;;;14.00;99.90;;;;;;5074287;28;19913;-64
2022/09/18 09:10:25;;;;;;;;;;;14.10;99.90;;;;;;5074639;28;19927;-65
2022/09/18 09:12:50;;;;;;;;;;;14.20;99.90;;;;;;5072811;28;20367;-65
2022/09/18 09:15:23;;;;;;;;;;;14.40;99.90;;;;;;5067722;28;19955;-64
2022/09/18 09:17:54;;;;;;;;;;;14.60;99.90;;;;;;5069187;28;19962;-65
2022/09/18 09:20:21;;;;;;;;;;;14.70;99.90;;;;;;5072880;28;19919;-65
2022/09/18 09:22:59;;;;;;;;;;;14.80;99.90;;;;;;5073600;28;19913;-65
2022/09/18 09:25:45;;;;;;;;;;;15.00;99.90;;;;;;5074055;28;19917;-66
2022/09/18 09:28:14;;;;;;;;;;;15.10;99.90;;;;;;5038304;28;20315;-65
2022/09/18 09:30:41;;;;;;;;;;;15.20;99.90;;;;;;5071722;28;19944;-64
2022/09/18 09:33:22;;;;;;;;;;;15.20;99.90;;;;;;5074449;28;19921;-63
2022/09/18 09:35:50;;;;;;;;;;;15.20;99.90;;;;;;5072688;28;20375;-65
2022/09/18 09:38:27;;;;;;;;;;;15.40;99.90;;;;;;5074613;28;19913;-65
2022/09/18 09:40:53;;;;;;;;;;;15.70;99.90;;;;;;5073535;28;20323;-64
2022/09/18 09:43:23;;;;;;;;;;;15.80;99.90;;;;;;5054255;28;19931;-65
2022/09/18 09:45:50;;;;;;;;;;;15.60;99.90;;;;;;5075504;28;19917;-65
2022/09/18 09:48:27;;;;;;;;;;;15.50;99.90;;;;;;5075695;28;19923;-65
2022/09/18 09:51:02;;;;;;;;;;;15.60;99.90;;;;;;5073156;28;19976;-66
2022/09/18 09:53:28;;;;;;;;;;;15.60;99.90;;;;;;5072406;28;19920;-66
2022/09/18 09:56:12;;;;;;;;;;;15.70;99.90;;;;;;5059272;28;19962;-64
2022/09/18 09:58:53;;;;;;;;;;;15.70;99.90;;;;;;5071155;28;19913;-66
2022/09/18 10:01:26;;;;;;;;;;;15.70;99.90;;;;;;5072001;28;20301;-65
2022/09/18 10:04:03;;;;;;;;;;;15.70;99.90;;;;;;5076769;28;19920;-64
2022/09/18 10:06:37;;;;;;;;;;;15.70;99.90;;;;;;5075755;28;19912;-66
2022/09/18 10:09:26;;;;;;;;;;;15.50;99.90;;;;;;5055392;28;20011;-65
2022/09/18 10:12:03;;;;;;;;;;;15.30;99.90;;;;;;5065827;28;19921;-65
2022/09/18 10:14:32;;;;;;;;;;;15.30;99.90;;;;;;5077751;28;19917;-65
2022/09/18 10:16:58;;;;;;;;;;;15.20;99.90;;;;;;5079753;28;19963;-65
2022/09/18 10:19:28;;;;;;;;;;;15.20;99.90;;;;;;5078936;28;19908;-65
2022/09/18 10:21:54;;;;;;;;;;;15.40;99.90;;;;;;5070943;28;19913;-65
2022/09/18 10:24:23;;;;;;;;;;;15.50;99.90;;;;;;5076792;28;19984;-66
2022/09/18 10:26:51;;;;;;;;;;;15.70;99.90;;;;;;5076099;28;19954;-65
2022/09/18 10:29:17;;;;;;;;;;;15.70;99.90;;;;;;5075990;28;20324;-65
2022/09/18 10:31:48;;;;;;;;;;;15.70;99.90;;;;;;5077924;28;19917;-65
2022/09/18 10:34:38;;;;;;;;;;;15.70;98.00;;;;;;5074728;28;19913;-65
2022/09/18 10:37:04;;;;;;;;;;;15.80;95.70;;;;;;5062170;28;19927;-65
2022/09/18 10:39:31;;;;;;;;;;;15.80;95.20;;;;;;5075596;28;20000;-66
2022/09/18 10:41:58;;;;;;;;;;;16.00;93.20;;;;;;5073478;28;19912;-65
2022/09/18 10:44:29;;;;;;;;;;;16.00;91.30;;;;;;5070742;28;19947;-66
2022/09/18 10:46:57;;;;;;;;;;;16.10;88.80;;;;;;5070219;28;19995;-65
2022/09/18 10:49:33;;;;;;;;;;;16.20;85.60;;;;;;5072787;28;19923;-65
2022/09/18 10:52:17;;;;;;;;;;;16.10;86.40;;;;;;5074739;28;19916;-64
2022/09/18 10:54:56;;;;;;;;;;;16.30;85.90;;;;;;5072955;28;19967;-65
2022/09/18 10:57:29;;;;;;;;;;;16.40;83.70;;;;;;5073625;28;19936;-65
2022/09/18 10:59:54;;;;;;;;;;;16.30;82.10;;;;;;5073382;28;20371;-64
2022/09/18 11:02:21;;;;;;;;;;;16.40;82.20;;;;;;5072878;28;20287;-66
2022/09/18 11:04:47;;;;;;;;;;;16.50;78.90;;;;;;5072217;28;19953;-66
2022/09/18 11:07:13;;;;;;;;;;;16.70;77.20;;;;;;5076310;28;19912;-65
2022/09/18 11:09:39;;;;;;;;;;;16.50;72.90;;;;;;5049126;28;19913;-65
2022/09/18 11:12:13;;;;;;;;;;;16.50;73.70;;;;;;5075601;28;20015;-65
2022/09/18 11:14:40;;;;;;;;;;;16.60;73.30;;;;;;5073299;28;19978;-65
2022/09/18 11:17:11;;;;;;;;;;;16.60;72.00;;;;;;5077405;28;19919;-65
2022/09/18 11:19:37;;;;;;;;;;;16.60;71.30;;;;;;5073750;28;19917;-63
2022/09/18 11:22:05;;;;;;;;;;;16.60;72.40;;;;;;5075946;28;19917;-64
2022/09/18 11:24:34;;;;;;;;;;;16.70;71.80;;;;;;5076171;28;19961;-65
2022/09/18 11:27:01;;;;;;;;;;;16.50;72.70;;;;;;5075074;28;20279;-64
2022/09/18 11:29:44;;;;;;;;;;;16.70;72.80;;;;;;5073455;28;19990;-64
2022/09/18 11:32:19;;;;;;;;;;;17.10;72.10;;;;;;5075044;28;19920;-65
2022/09/18 11:34:48;;;;;;;;;;;16.90;72.30;;;;;;5070378;28;19913;-66
2022/09/18 11:37:20;;;;;;;;;;;17.00;72.40;;;;;;5075642;28;19921;-64
2022/09/18 11:39:50;;;;;;;;;;;16.90;71.20;;;;;;5073620;28;19916;-64
2022/09/18 11:42:16;;;;;;;;;;;17.00;71.80;;;;;;5076812;28;20050;-65
2022/09/18 11:44:42;;;;;;;;;;;17.10;71.50;;;;;;5075674;28;19956;-65
2022/09/18 11:47:24;;;;;;;;;;;16.80;73.00;;;;;;5071406;28;19948;-64
2022/09/18 11:50:10;;;;;;;;;;;16.90;72.60;;;;;;5072262;28;19948;-65
2022/09/18 11:52:59;;;;;;;;;;;17.10;71.30;;;;;;5072802;28;20062;-64
2022/09/18 11:55:43;;;;;;;;;;;17.10;70.70;;;;;;5074759;28;20025;-66
2022/09/18 11:58:08;;;;;;;;;;;17.10;71.50;;;;;;5073307;28;19912;-64
2022/09/18 12:00:39;;;;;;;;;;;17.10;72.10;;;;;;5074405;28;19912;-66
2022/09/18 12:03:23;;;;;;;;;;;17.20;72.10;;;;;;5056752;28;19924;-65
2022/09/18 12:05:51;;;;;;;;;;;17.50;71.50;;;;;;5073845;28;19913;-65
2022/09/18 12:08:29;;;;;;;;;;;17.60;71.40;;;;;;5065325;28;19932;-65
2022/09/18 12:11:13;;;;;;;;;;;17.80;71.60;;;;;;5070796;28;19916;-65
2022/09/18 12:13:59;;;;;;;;;;;17.70;69.90;;;;;;5067711;28;20057;-65
2022/09/18 12:16:37;;;;;;;;;;;17.70;69.90;;;;;;5015711;28;20352;-65
2022/09/18 12:19:18;;;;;;;;;;;17.50;70.60;;;;;;5070308;28;19913;-64
2022/09/18 12:22:03;;;;;;;;;;;17.30;71.30;;;;;;5068188;28;20397;-64
2022/09/18 12:24:29;;;;;;;;;;;17.50;72.10;;;;;;5055930;28;20539;-65
2022/09/18 12:27:18;;;;;;;;;;;17.80;70.20;;;;;;5070852;28;19924;-65
2022/09/18 12:29:46;;;;;;;;;;;17.90;70.30;;;;;;5067835;28;19967;-64
2022/09/18 12:32:12;;;;;;;;;;;18.20;69.10;;;;;;5069882;28;19951;-64
2022/09/18 12:34:47;;;;;;;;;;;18.30;68.70;;;;;;5051362;28;19912;-63
2022/09/18 12:37:32;;;;;;;;;;;18.10;68.60;;;;;;5073522;28;19984;-64
2022/09/18 12:40:09;;;;;;;;;;;18.00;68.50;;;;;;5063312;28;19996;-65
2022/09/18 12:42:37;;;;;;;;;;;18.10;67.80;;;;;;5075207;28;19921;-64
2022/09/18 12:45:06;;;;;;;;;;;17.80;69.00;;;;;;5071344;28;19912;-64
2022/09/18 12:47:50;;;;;;;;;;;17.80;68.80;;;;;;5071247;28;19987;-64
2022/09/18 12:50:23;;;;;;;;;;;17.70;69.40;;;;;;5068112;28;19912;-64
2022/09/18 12:52:59;;;;;;;;;;;17.70;70.00;;;;;;5075244;28;19921;-64
2022/09/18 12:55:33;;;;;;;;;;;17.70;68.70;;;;;;5075864;28;19912;-65
2022/09/18 12:58:17;;;;;;;;;;;17.70;69.30;;;;;;5077189;28;19924;-65
2022/09/18 13:00:46;;;;;;;;;;;18.00;67.60;;;;;;5044218;28;20053;-65
2022/09/18 13:03:17;;;;;;;;;;;18.00;68.50;;;;;;5074403;28;19920;-65
2022/09/18 13:05:51;;;;;;;;;;;18.10;68.30;;;;;;5074057;28;19920;-65
2022/09/18 13:08:20;;;;;;;;;;;18.30;67.30;;;;;;5071205;28;19932;-65
2022/09/18 13:10:47;;;;;;;;;;;18.20;66.80;;;;;;5078436;28;19913;-64
2022/09/18 13:13:19;;;;;;;;;;;18.20;67.80;;;;;;5076751;28;19920;-65
2022/09/18 13:15:52;;;;;;;;;;;18.30;66.70;;;;;;5078209;28;20016;-66
2022/09/18 13:18:17;;;;;;;;;;;18.10;66.60;;;;;;5058297;28;19951;-65
2022/09/18 13:20:44;;;;;;;;;;;18.10;66.00;;;;;;5077290;28;19923;-64
2022/09/18 13:23:15;;;;;;;;;;;18.20;65.60;;;;;;5080223;28;19912;-64
2022/09/18 13:25:42;;;;;;;;;;;18.10;66.00;;;;;;5073984;28;20331;-65
2022/09/18 13:28:14;;;;;;;;;;;18.00;65.10;;;;;;5076674;28;19912;-64
2022/09/18 13:30:39;;;;;;;;;;;18.10;64.90;;;;;;5072714;28;20342;-64
2022/09/18 13:33:20;;;;;;;;;;;18.20;64.00;;;;;;5077261;28;19920;-66
2022/09/18 13:35:50;;;;;;;;;;;18.10;60.70;;;;;;5071563;28;19962;-65
2022/09/18 13:38:17;;;;;;;;;;;18.20;60.50;;;;;;5062053;28;20003;-64
2022/09/18 13:40:47;;;;;;;;;;;18.40;59.90;;;;;;5080415;28;19913;-65
2022/09/18 13:43:13;;;;;;;;;;;18.30;59.80;;;;;;5080793;28;19912;-65
2022/09/18 13:45:39;;;;;;;;;;;18.50;59.50;;;;;;5077842;28;19912;-65
2022/09/18 13:48:04;;;;;;;;;;;18.60;59.60;;;;;;5075260;28;19960;-66
2022/09/18 13:50:31;;;;;;;;;;;18.70;59.70;;;;;;5062883;28;20356;-65
2022/09/18 13:52:57;;;;;;;;;;;18.70;60.20;;;;;;5078278;28;19921;-64
2022/09/18 13:55:25;;;;;;;;;;;18.90;59.10;;;;;;5072085;28;19924;-64
2022/09/18 13:57:51;;;;;;;;;;;18.80;60.00;;;;;;5075438;28;20347;-64
2022/09/18 14:00:19;;;;;;;;;;;18.80;59.40;;;;;;5076446;28;19924;-65
2022/09/18 14:02:48;;;;;;;;;;;18.90;59.30;;;;;;5077326;28;19913;-65
2022/09/18 14:05:26;;;;;;;;;;;18.90;59.40;;;;;;5072043;28;19912;-64
2022/09/18 14:07:55;;;;;;;;;;;18.80;59.70;;;;;;5049723;28;19912;-65
2022/09/18 14:10:26;;;;;;;;;;;18.80;59.80;;;;;;5075894;28;19936;-64
2022/09/18 14:13:03;;;;;;;;;;;18.80;60.50;;;;;;5057012;28;19920;-64
2022/09/18 14:15:30;;;;;;;;;;;18.70;60.20;;;;;;5075694;28;19916;-65
2022/09/18 14:18:05;;;;;;;;;;;18.70;61.50;;;;;;5080036;28;19951;-64
2022/09/18 14:20:31;;;;;;;;;;;18.80;61.10;;;;;;5076753;28;20243;-65
2022/09/18 14:23:17;;;;;;;;;;;18.80;60.10;;;;;;5085179;28;19912;-65
2022/09/18 14:25:44;;;;;;;;;;;19.00;59.50;;;;;;5082340;28;20381;-65
2022/09/18 14:28:10;;;;;;;;;;;19.10;59.30;;;;;;5062876;28;19944;-65
2022/09/18 14:30:35;;;;;;;;;;;19.00;59.30;;;;;;5076607;28;19958;-65
2022/09/18 14:33:07;;;;;;;;;;;19.00;58.40;;;;;;5075445;28;19917;-64
2022/09/18 14:35:41;;;;;;;;;;;18.80;58.10;;;;;;5076749;28;19913;-65